Nikiski, Alaska
Current Conditions -  °F | °C
As of 2:53 PM on Saturday 25 Oct 2014 (Local Time) from PAEN Reporting Station
Clear Clear  
Wind Chill: 39°   Ceiling: Unl
Heat Index: 39°   Visibility: 10mi
Dew Point: 28°   Wind: 3mph
Humidity: 65%   Direction: 10°N
Pressure: 29.86"   Gusts: NA
Location:  60.72°N, 151.38°W
Report Text: PAEN 252253Z 01003KT 10SM CLR 04/M02 A2986 RMK AO2 SLP115 T00391022
Loading
Personal Weather Stations






























Interactive Weather Map
Tropical Storm Tracking
New forecast layout! Learn more

10-Day Weather Forecast

Advertisements
Track Severe Weather on mobile